createdAt,value
2022-10-17T00:00:41.882Z,19.64
2022-10-17T00:03:09.061Z,19.65
2022-10-17T00:05:39.778Z,19.65
2022-10-17T00:08:06.429Z,19.77
2022-10-17T00:10:32.969Z,19.68
2022-10-17T00:12:59.532Z,19.63
2022-10-17T00:15:26.128Z,19.67
2022-10-17T00:17:52.659Z,19.56
2022-10-17T00:20:19.323Z,19.59
2022-10-17T00:22:45.916Z,19.58
2022-10-17T00:25:12.458Z,19.51
2022-10-17T00:27:40.292Z,19.56
2022-10-17T00:30:10.392Z,19.55
2022-10-17T00:32:36.927Z,19.52
2022-10-17T00:35:03.633Z,19.52
2022-10-17T00:37:31.603Z,19.51
2022-10-17T00:39:58.470Z,19.47
2022-10-17T00:42:25.874Z,19.59
2022-10-17T00:45:31.271Z,19.65
2022-10-17T00:48:04.122Z,19.56
2022-10-17T00:50:30.936Z,19.56
2022-10-17T00:53:00.100Z,19.45
2022-10-17T00:55:29.553Z,19.55
2022-10-17T00:57:57.352Z,19.45
2022-10-17T01:00:24.920Z,19.52
2022-10-17T01:02:51.469Z,19.51
2022-10-17T01:05:18.784Z,19.48
2022-10-17T01:07:46.365Z,19.54
2022-10-17T01:10:14.289Z,19.40
2022-10-17T01:13:00.653Z,19.51
2022-10-17T01:16:04.608Z,19.53
2022-10-17T01:18:46.872Z,19.48
2022-10-17T01:22:01.674Z,19.52
2022-10-17T01:24:49.606Z,19.45
2022-10-17T01:27:34.152Z,19.51
2022-10-17T01:30:09.399Z,19.39
2022-10-17T01:33:06.940Z,19.43
2022-10-17T01:36:03.272Z,19.52
2022-10-17T01:38:36.915Z,19.32
2022-10-17T01:41:07.470Z,19.38
2022-10-17T01:43:53.557Z,19.50
2022-10-17T01:46:28.913Z,19.40
2022-10-17T01:48:56.017Z,19.31
2022-10-17T01:51:29.254Z,19.37
2022-10-17T01:54:01.834Z,19.37
2022-10-17T01:56:30.585Z,19.26
2022-10-17T01:59:00.991Z,19.34
2022-10-17T02:01:29.152Z,19.27
2022-10-17T02:03:57.412Z,19.32
2022-10-17T02:06:23.956Z,19.35
2022-10-17T02:08:51.283Z,19.32
2022-10-17T02:11:22.533Z,19.35
2022-10-17T02:14:15.264Z,19.37
2022-10-17T02:17:03.392Z,19.42
2022-10-17T02:19:56.464Z,19.34
2022-10-17T02:22:51.758Z,19.31
2022-10-17T02:25:39.030Z,19.36
2022-10-17T02:28:11.541Z,19.35
2022-10-17T02:30:47.379Z,19.26
2022-10-17T02:33:20.619Z,19.25
2022-10-17T02:35:53.496Z,19.39
2022-10-17T02:38:20.560Z,19.37
2022-10-17T02:40:47.169Z,19.33
2022-10-17T02:43:14.621Z,19.24
2022-10-17T02:45:41.829Z,19.28
2022-10-17T02:48:12.898Z,19.31
2022-10-17T02:51:14.677Z,19.34
2022-10-17T02:53:50.119Z,19.21
2022-10-17T02:56:22.568Z,19.28
2022-10-17T02:58:53.580Z,19.25
2022-10-17T03:01:20.951Z,19.34
2022-10-17T03:03:47.576Z,19.31
2022-10-17T03:06:14.117Z,19.22
2022-10-17T03:08:40.654Z,19.29
2022-10-17T03:11:07.252Z,19.26
2022-10-17T03:13:36.232Z,19.14
2022-10-17T03:16:06.361Z,19.07
2022-10-17T03:18:32.907Z,19.23
2022-10-17T03:20:59.441Z,19.33
2022-10-17T03:23:25.956Z,19.18
2022-10-17T03:25:52.495Z,19.21
2022-10-17T03:28:19.028Z,19.16
2022-10-17T03:30:45.564Z,19.22
2022-10-17T03:33:12.142Z,19.35
2022-10-17T03:35:40.255Z,19.16
2022-10-17T03:38:06.893Z,19.12
2022-10-17T03:40:33.449Z,19.14
2022-10-17T03:42:59.974Z,19.18
2022-10-17T03:45:26.505Z,19.14
2022-10-17T03:47:53.041Z,19.22
2022-10-17T03:50:19.572Z,19.29
2022-10-17T03:52:49.610Z,19.23
2022-10-17T03:55:16.752Z,19.11
2022-10-17T03:57:45.473Z,19.20
2022-10-17T04:00:13.062Z,19.09
2022-10-17T04:02:39.663Z,19.21
2022-10-17T04:05:06.794Z,19.24
2022-10-17T04:07:33.355Z,19.26
2022-10-17T04:09:59.915Z,19.21
2022-10-17T04:12:26.711Z,19.21
2022-10-17T04:14:53.424Z,19.24
2022-10-17T04:17:19.990Z,19.20
2022-10-17T04:19:46.569Z,19.21
2022-10-17T04:22:13.377Z,19.16
2022-10-17T04:24:39.909Z,19.23
2022-10-17T04:27:06.477Z,19.20
2022-10-17T04:29:33.034Z,19.20
2022-10-17T04:31:59.581Z,19.27
2022-10-17T04:34:26.111Z,19.05
2022-10-17T04:36:52.640Z,19.23
2022-10-17T04:39:19.186Z,19.14
2022-10-17T04:41:45.713Z,19.20
2022-10-17T04:44:12.264Z,19.06
2022-10-17T04:46:38.837Z,19.23
2022-10-17T04:49:05.367Z,19.08
2022-10-17T04:51:31.956Z,19.03
2022-10-17T04:53:58.522Z,19.15
2022-10-17T04:56:25.242Z,19.14
2022-10-17T04:58:51.868Z,18.95
2022-10-17T05:01:20.777Z,19.01
2022-10-17T05:03:47.877Z,19.07
2022-10-17T05:06:19.999Z,19.22
2022-10-17T05:08:46.726Z,19.15
2022-10-17T05:11:17.104Z,19.02
2022-10-17T05:13:43.664Z,18.99
2022-10-17T05:16:10.846Z,19.03
2022-10-17T05:18:37.383Z,19.13
2022-10-17T05:21:04.526Z,19.09
2022-10-17T05:23:31.099Z,19.21
2022-10-17T05:25:57.693Z,19.06
2022-10-17T05:28:24.451Z,19.12
2022-10-17T05:30:51.145Z,19.14
2022-10-17T05:33:17.781Z,18.97
2022-10-17T05:35:44.361Z,19.02
2022-10-17T05:38:10.907Z,19.01
2022-10-17T05:40:39.353Z,18.99
2022-10-17T05:43:06.049Z,19.04
2022-10-17T05:45:32.659Z,19.09
2022-10-17T05:47:59.264Z,19.07
2022-10-17T05:50:25.844Z,19.00
2022-10-17T05:52:54.027Z,19.02
2022-10-17T05:55:20.581Z,19.11
2022-10-17T05:57:47.248Z,19.00
2022-10-17T06:00:14.105Z,19.14
2022-10-17T06:02:40.649Z,18.92
2022-10-17T06:05:07.421Z,18.95
2022-10-17T06:07:33.984Z,18.97
2022-10-17T06:10:00.546Z,19.00
2022-10-17T06:12:27.313Z,19.00
2022-10-17T06:14:54.137Z,18.91
2022-10-17T06:17:20.677Z,19.05
2022-10-17T06:19:47.652Z,19.13
2022-10-17T06:22:14.535Z,18.89
2022-10-17T06:24:41.418Z,19.02
2022-10-17T06:27:11.101Z,19.00
2022-10-17T06:29:38.636Z,19.04
2022-10-17T06:32:06.327Z,19.04
2022-10-17T06:34:33.394Z,19.07
2022-10-17T06:36:59.926Z,19.02
2022-10-17T06:39:33.685Z,18.92
2022-10-17T06:42:01.100Z,19.08
2022-10-17T06:44:31.574Z,19.06
2022-10-17T06:46:59.057Z,19.02
2022-10-17T06:49:25.792Z,19.02
2022-10-17T06:51:52.340Z,18.94
2022-10-17T06:54:18.871Z,18.87
2022-10-17T06:56:45.465Z,19.02
2022-10-17T06:59:12.293Z,19.00
2022-10-17T07:01:40.686Z,18.95
2022-10-17T07:04:09.889Z,18.83
2022-10-17T07:06:36.443Z,19.03
2022-10-17T07:09:03.465Z,19.02
2022-10-17T07:11:30.000Z,19.09
2022-10-17T07:13:56.555Z,19.13
2022-10-17T07:16:23.176Z,19.03
2022-10-17T07:18:50.744Z,19.06
2022-10-17T07:21:17.520Z,19.08
2022-10-17T07:23:44.177Z,19.14
2022-10-17T07:26:12.845Z,19.08
2022-10-17T07:28:41.672Z,19.20
2022-10-17T07:31:14.912Z,19.18
2022-10-17T07:33:42.124Z,19.14
2022-10-17T07:36:09.223Z,19.18
2022-10-17T07:38:36.701Z,19.08
2022-10-17T07:41:05.781Z,19.17
2022-10-17T07:43:33.147Z,19.16
2022-10-17T07:46:01.037Z,19.15
2022-10-17T07:48:27.626Z,19.11
2022-10-17T07:50:54.177Z,19.21
2022-10-17T07:53:20.782Z,19.14
2022-10-17T07:55:48.132Z,19.19
2022-10-17T07:58:14.740Z,19.18
2022-10-17T08:00:41.513Z,19.24
2022-10-17T08:03:08.573Z,19.24
2022-10-17T08:05:35.885Z,19.31
2022-10-17T08:08:02.429Z,19.28
2022-10-17T08:10:29.737Z,19.31
2022-10-17T08:12:57.441Z,19.29
2022-10-17T08:15:29.334Z,19.29
2022-10-17T08:17:58.630Z,19.32
2022-10-17T08:20:25.149Z,19.30
2022-10-17T08:22:53.170Z,19.30
2022-10-17T08:25:19.721Z,19.22
2022-10-17T08:27:46.501Z,19.33
2022-10-17T08:30:13.282Z,19.34
2022-10-17T08:32:40.019Z,19.26
2022-10-17T08:35:06.892Z,19.30
2022-10-17T08:37:33.849Z,19.32
2022-10-17T08:40:00.656Z,19.28
2022-10-17T08:42:51.209Z,19.37
2022-10-17T08:45:33.209Z,19.35
2022-10-17T08:48:06.165Z,19.28
2022-10-17T08:50:40.243Z,19.31
2022-10-17T08:53:25.078Z,19.27
2022-10-17T08:55:53.463Z,19.38
2022-10-17T08:58:26.052Z,19.30
2022-10-17T09:01:24.129Z,19.37
2022-10-17T09:03:59.609Z,19.39
2022-10-17T09:06:30.182Z,19.32
2022-10-17T09:09:44.473Z,19.35
2022-10-17T09:12:18.471Z,19.37
2022-10-17T09:14:44.943Z,19.36
2022-10-17T09:17:26.395Z,19.43
2022-10-17T09:20:26.042Z,19.40
2022-10-17T09:23:01.567Z,19.45
2022-10-17T09:25:28.373Z,19.40
2022-10-17T09:28:04.152Z,19.43
2022-10-17T09:31:01.501Z,19.40
2022-10-17T09:33:55.880Z,19.44
2022-10-17T09:36:36.864Z,19.48
2022-10-17T09:39:13.236Z,19.45
2022-10-17T09:44:35.820Z,19.43
2022-10-17T09:47:24.317Z,19.44
2022-10-17T09:49:51.701Z,19.43
2022-10-17T09:52:41.077Z,19.41
2022-10-17T09:55:21.612Z,19.40
2022-10-17T09:57:53.541Z,19.45
2022-10-17T10:00:23.655Z,19.43
2022-10-17T10:02:50.336Z,19.36
2022-10-17T10:05:20.560Z,19.43
2022-10-17T10:08:03.447Z,19.46
2022-10-17T10:10:30.865Z,19.50
2022-10-17T10:13:15.891Z,19.49
2022-10-17T10:15:50.089Z,19.48
2022-10-17T10:18:36.221Z,19.49
2022-10-17T10:21:23.821Z,19.51
2022-10-17T10:24:04.077Z,19.53
2022-10-17T10:26:42.901Z,19.54
2022-10-17T10:29:30.788Z,19.57
2022-10-17T10:32:07.202Z,19.61
2022-10-17T10:34:35.949Z,19.59
2022-10-17T10:37:23.797Z,19.55
2022-10-17T10:39:53.308Z,19.54
2022-10-17T10:42:23.263Z,19.63
2022-10-17T10:44:50.568Z,19.54
2022-10-17T10:47:23.232Z,19.62
2022-10-17T10:50:13.977Z,19.59
2022-10-17T10:52:45.170Z,19.59
2022-10-17T10:55:27.866Z,19.58
2022-10-17T10:57:58.650Z,19.54
2022-10-17T11:00:26.750Z,19.66
2022-10-17T11:03:14.841Z,19.57
2022-10-17T11:05:49.711Z,19.66
2022-10-17T11:08:46.205Z,19.66
2022-10-17T11:11:38.744Z,19.66
2022-10-17T11:14:31.365Z,19.73
2022-10-17T11:17:25.794Z,19.70
2022-10-17T11:20:15.142Z,19.67
2022-10-17T11:22:46.577Z,19.69
2022-10-17T11:25:34.563Z,19.67
2022-10-17T11:28:04.981Z,19.68
2022-10-17T11:33:21.011Z,19.67
2022-10-17T11:35:51.037Z,19.68
2022-10-17T11:38:51.456Z,19.72
2022-10-17T11:41:24.064Z,19.73
2022-10-17T11:43:55.337Z,19.77
2022-10-17T11:46:24.406Z,19.72
2022-10-17T11:48:58.809Z,19.64
2022-10-17T11:54:16.735Z,19.78
2022-10-17T11:57:04.497Z,19.77
2022-10-17T12:00:11.952Z,19.77
2022-10-17T12:02:41.318Z,19.76
2022-10-17T12:05:16.559Z,19.77
2022-10-17T12:07:45.443Z,19.79
2022-10-17T12:10:43.925Z,19.79
2022-10-17T12:13:33.704Z,19.83
2022-10-17T12:16:19.347Z,19.80
2022-10-17T12:19:09.861Z,19.77
2022-10-17T12:22:03.849Z,19.79
2022-10-17T12:24:37.895Z,19.82
2022-10-17T12:27:37.422Z,19.88
2022-10-17T12:30:13.501Z,19.89
2022-10-17T12:33:07.447Z,19.88
2022-10-17T12:35:36.561Z,19.91
2022-10-17T12:38:24.520Z,19.94
2022-10-17T12:40:53.419Z,19.91
2022-10-17T12:43:29.069Z,19.99
2022-10-17T12:45:59.757Z,19.99
2022-10-17T12:48:38.762Z,19.95
2022-10-17T12:51:34.369Z,19.95
2022-10-17T12:54:00.493Z,19.92
2022-10-17T12:56:42.991Z,19.94
2022-10-17T12:59:31.277Z,19.96
2022-10-17T13:02:00.260Z,19.90
2022-10-17T13:04:27.673Z,19.91
2022-10-17T13:06:58.719Z,19.95
2022-10-17T13:09:31.024Z,19.95
2022-10-17T13:12:00.364Z,19.95
2022-10-17T13:14:27.382Z,19.94
2022-10-17T13:17:02.016Z,19.96
2022-10-17T13:19:40.978Z,19.96
2022-10-17T13:22:15.642Z,20.00
2022-10-17T13:24:42.183Z,19.99
2022-10-17T13:27:30.086Z,19.98
2022-10-17T13:29:58.333Z,19.97
2022-10-17T13:32:26.952Z,19.94
2022-10-17T13:35:41.954Z,19.96
2022-10-17T13:38:12.677Z,19.90
2022-10-17T13:40:49.883Z,19.95
2022-10-17T13:43:20.874Z,19.96
2022-10-17T13:45:50.715Z,19.94
2022-10-17T13:48:28.565Z,20.00
2022-10-17T13:51:03.049Z,19.99
2022-10-17T13:53:39.958Z,19.98
2022-10-17T13:56:33.699Z,20.02
2022-10-17T13:59:18.755Z,19.98
2022-10-17T14:01:45.485Z,20.02
2022-10-17T14:04:19.564Z,19.97
2022-10-17T14:06:49.768Z,19.98
2022-10-17T14:09:29.463Z,20.02
2022-10-17T14:12:03.780Z,20.10
2022-10-17T14:14:37.506Z,20.11
2022-10-17T14:17:23.205Z,20.11
2022-10-17T14:20:06.545Z,20.09
2022-10-17T14:22:40.697Z,20.12
2022-10-17T14:25:37.009Z,20.14
2022-10-17T14:28:14.491Z,20.10
2022-10-17T14:30:56.240Z,20.08
2022-10-17T14:33:27.468Z,20.04
2022-10-17T14:35:56.869Z,20.14
2022-10-17T14:38:23.809Z,20.02
2022-10-17T14:40:52.643Z,20.08
2022-10-17T14:43:23.950Z,20.18
2022-10-17T14:45:50.519Z,20.08
2022-10-17T14:48:19.655Z,20.17
2022-10-17T14:51:12.272Z,20.15
2022-10-17T14:53:39.656Z,20.20
2022-10-17T14:56:22.180Z,20.19
2022-10-17T14:58:48.783Z,20.11
2022-10-17T15:01:15.349Z,20.10
2022-10-17T15:03:41.946Z,20.10
2022-10-17T15:06:40.646Z,20.20
2022-10-17T15:09:07.449Z,20.20
2022-10-17T15:11:33.992Z,20.15
2022-10-17T15:14:00.532Z,20.20
2022-10-17T15:16:30.903Z,20.18
2022-10-17T15:18:57.556Z,20.19
2022-10-17T15:21:37.577Z,20.12
2022-10-17T15:24:07.229Z,20.23
2022-10-17T15:26:34.389Z,20.17
2022-10-17T15:29:02.135Z,20.14
2022-10-17T15:31:29.751Z,20.16
2022-10-17T15:33:56.290Z,20.24
2022-10-17T15:36:34.085Z,20.17
2022-10-17T15:39:01.459Z,20.24
2022-10-17T15:41:30.057Z,20.29
2022-10-17T15:43:57.040Z,20.20
2022-10-17T15:46:28.836Z,20.25
2022-10-17T15:48:56.564Z,20.26
2022-10-17T15:51:23.772Z,20.22
2022-10-17T15:53:50.332Z,20.26
2022-10-17T15:56:26.847Z,20.30
2022-10-17T15:58:53.696Z,20.20
2022-10-17T16:01:27.060Z,20.19
2022-10-17T16:03:53.951Z,20.23
2022-10-17T16:06:21.825Z,20.23
2022-10-17T16:08:49.467Z,20.18
2022-10-17T16:11:45.378Z,20.24
2022-10-17T16:14:14.597Z,20.18
2022-10-17T16:16:41.319Z,20.18
2022-10-17T16:19:08.602Z,20.26
2022-10-17T16:21:36.523Z,20.19
2022-10-17T16:24:03.699Z,20.28
2022-10-17T16:26:30.251Z,20.24
2022-10-17T16:28:58.199Z,20.15
2022-10-17T16:31:29.329Z,20.27
2022-10-17T16:33:57.345Z,20.22
2022-10-17T16:36:24.043Z,20.23
2022-10-17T16:41:27.315Z,20.25
2022-10-17T16:43:55.544Z,20.22
2022-10-17T16:46:23.011Z,20.25
2022-10-17T16:48:49.802Z,20.25
2022-10-17T16:51:18.372Z,20.25
2022-10-17T16:53:50.273Z,20.20
2022-10-17T16:56:20.401Z,20.28
2022-10-17T16:58:47.248Z,20.24
2022-10-17T17:01:16.173Z,20.30
2022-10-17T17:03:44.480Z,20.26
2022-10-17T17:06:16.327Z,20.28
2022-10-17T17:08:43.503Z,20.32
2022-10-17T17:11:11.356Z,20.24
2022-10-17T17:13:38.636Z,20.19
2022-10-17T17:16:17.149Z,20.14
2022-10-17T17:18:45.983Z,20.02
2022-10-17T17:21:13.192Z,20.05
2022-10-17T17:23:41.269Z,20.04
2022-10-17T17:26:10.391Z,20.07
2022-10-17T17:28:36.978Z,20.04
2022-10-17T17:31:07.695Z,20.13
2022-10-17T17:33:34.278Z,20.05
2022-10-17T17:36:02.001Z,20.02
2022-10-17T17:38:29.582Z,19.91
2022-10-17T17:40:56.140Z,19.99
2022-10-17T17:43:22.741Z,19.99
2022-10-17T17:45:49.285Z,19.97
2022-10-17T17:48:15.840Z,19.87
2022-10-17T17:50:42.776Z,19.88
2022-10-17T17:53:10.261Z,19.90
2022-10-17T17:55:36.905Z,19.98
2022-10-17T17:58:03.885Z,19.97
2022-10-17T18:00:30.487Z,19.86
2022-10-17T18:02:57.312Z,19.91
2022-10-17T18:05:24.133Z,19.81
2022-10-17T18:07:50.672Z,19.89
2022-10-17T18:10:17.309Z,19.87
2022-10-17T18:12:43.891Z,19.92
2022-10-17T18:15:10.997Z,19.82
2022-10-17T18:17:37.912Z,19.89
2022-10-17T18:20:06.056Z,19.91
2022-10-17T18:22:32.817Z,19.83
2022-10-17T18:24:59.603Z,19.84
2022-10-17T18:27:26.171Z,19.82
2022-10-17T18:29:52.790Z,19.84
2022-10-17T18:32:19.332Z,19.86
2022-10-17T18:34:45.944Z,19.92
2022-10-17T18:37:12.472Z,19.83
2022-10-17T18:39:39.091Z,19.82
2022-10-17T18:42:05.615Z,19.92
2022-10-17T18:44:32.220Z,19.80
2022-10-17T18:47:02.995Z,19.78
2022-10-17T18:49:30.878Z,19.83
2022-10-17T18:51:57.616Z,19.81
2022-10-17T18:54:24.457Z,19.82
2022-10-17T18:56:53.692Z,19.84
2022-10-17T18:59:20.991Z,19.86
2022-10-17T19:01:48.066Z,19.86
2022-10-17T19:04:14.901Z,19.78
2022-10-17T19:06:41.803Z,19.86
2022-10-17T19:09:09.861Z,19.81
2022-10-17T19:11:37.585Z,19.68
2022-10-17T19:14:13.133Z,19.77
2022-10-17T19:16:50.999Z,19.73
2022-10-17T19:19:21.384Z,19.72
2022-10-17T19:21:48.479Z,19.80
2022-10-17T19:24:22.889Z,19.81
2022-10-17T19:26:50.812Z,19.79
2022-10-17T19:29:18.252Z,19.69
2022-10-17T19:31:45.633Z,19.75
2022-10-17T19:34:12.797Z,19.64
2022-10-17T19:36:39.679Z,19.77
2022-10-17T19:39:12.228Z,19.69
2022-10-17T19:41:43.613Z,19.73
2022-10-17T19:44:10.354Z,19.76
2022-10-17T19:46:37.233Z,19.64
2022-10-17T19:49:04.222Z,19.69
2022-10-17T19:51:30.831Z,19.70
2022-10-17T19:54:00.339Z,19.69
2022-10-17T19:56:28.539Z,19.68
2022-10-17T19:58:56.235Z,19.67
2022-10-17T20:01:28.357Z,19.72
2022-10-17T20:03:55.788Z,19.61
2022-10-17T20:06:22.750Z,19.71
2022-10-17T20:08:49.493Z,19.62
2022-10-17T20:11:18.717Z,19.76
2022-10-17T20:13:45.440Z,19.69
2022-10-17T20:16:17.692Z,19.57
2022-10-17T20:18:44.813Z,19.67
2022-10-17T20:21:14.812Z,19.65
2022-10-17T20:23:41.891Z,19.61
2022-10-17T20:26:33.265Z,19.64
2022-10-17T20:29:01.225Z,19.63
2022-10-17T20:31:28.348Z,19.61
2022-10-17T20:33:59.230Z,19.55
2022-10-17T20:36:26.017Z,19.64
2022-10-17T20:38:56.594Z,19.67
2022-10-17T20:41:24.096Z,19.56
2022-10-17T20:43:51.881Z,19.56
2022-10-17T20:46:34.953Z,19.61
2022-10-17T20:49:02.697Z,19.50
2022-10-17T20:51:29.284Z,19.64
2022-10-17T20:56:29.479Z,19.72
2022-10-17T20:59:01.533Z,19.63
2022-10-17T21:01:29.110Z,19.64
2022-10-17T21:03:58.253Z,19.67
2022-10-17T21:06:27.222Z,19.56
2022-10-17T21:08:55.101Z,19.64
2022-10-17T21:11:26.684Z,19.63
2022-10-17T21:14:01.678Z,19.63
2022-10-17T21:16:29.447Z,19.55
2022-10-17T21:18:56.524Z,19.58
2022-10-17T21:21:28.311Z,19.60
2022-10-17T21:23:57.200Z,19.58
2022-10-17T21:26:24.223Z,19.60
2022-10-17T21:28:50.842Z,19.59
2022-10-17T21:31:24.973Z,19.55
2022-10-17T21:33:53.920Z,19.64
2022-10-17T21:36:20.997Z,19.55
2022-10-17T21:38:49.301Z,19.63
2022-10-17T21:41:17.978Z,19.53
2022-10-17T21:43:44.589Z,19.47
2022-10-17T21:46:16.359Z,19.55
2022-10-17T21:48:43.548Z,19.49
2022-10-17T21:51:16.120Z,19.56
2022-10-17T21:53:43.145Z,19.59
2022-10-17T21:56:11.830Z,19.54
2022-10-17T21:58:38.788Z,19.48
2022-10-17T22:01:13.531Z,19.57
2022-10-17T22:03:45.665Z,19.50
2022-10-17T22:06:37.615Z,19.42
2022-10-17T22:09:03.686Z,19.49
2022-10-17T22:11:32.501Z,19.48
2022-10-17T22:14:11.420Z,19.46
2022-10-17T22:16:38.671Z,19.49
2022-10-17T22:19:06.779Z,19.47
2022-10-17T22:21:34.993Z,19.50
2022-10-17T22:24:03.318Z,19.37
2022-10-17T22:26:31.727Z,19.57
2022-10-17T22:28:58.454Z,19.48
2022-10-17T22:31:25.358Z,19.39
2022-10-17T22:33:52.142Z,19.54
2022-10-17T22:36:18.999Z,19.51
2022-10-17T22:38:45.610Z,19.51
2022-10-17T22:41:12.179Z,19.53
2022-10-17T22:43:38.717Z,19.55
2022-10-17T22:46:06.680Z,19.45
2022-10-17T22:48:33.557Z,19.53
2022-10-17T22:51:00.524Z,19.49
2022-10-17T22:53:27.223Z,19.54
2022-10-17T22:55:55.080Z,19.52
2022-10-17T22:58:22.171Z,19.46
2022-10-17T23:00:49.889Z,19.52
2022-10-17T23:03:17.167Z,19.46
2022-10-17T23:05:44.271Z,19.36
2022-10-17T23:08:11.615Z,19.42
2022-10-17T23:10:38.561Z,19.32
2022-10-17T23:13:05.142Z,19.38
2022-10-17T23:15:32.756Z,19.38
2022-10-17T23:18:00.149Z,19.42
2022-10-17T23:20:29.081Z,19.46
2022-10-17T23:22:55.826Z,19.39
2022-10-17T23:25:22.411Z,19.34
2022-10-17T23:27:48.996Z,19.44
2022-10-17T23:30:15.634Z,19.37
2022-10-17T23:32:42.519Z,19.45
2022-10-17T23:35:09.867Z,19.43
2022-10-17T23:37:36.785Z,19.40
2022-10-17T23:40:04.326Z,19.43
2022-10-17T23:42:31.019Z,19.42
2022-10-17T23:44:57.557Z,19.39
2022-10-17T23:47:24.116Z,19.42
2022-10-17T23:49:50.704Z,19.35
2022-10-17T23:52:17.263Z,19.42
2022-10-17T23:54:44.144Z,19.42
2022-10-17T23:57:10.738Z,19.33
2022-10-17T23:59:37.322Z,19.44
